sensor_id;sensor_type;location;lat;lon;timestamp;temperature;humidity
13794;DHT22;31160;49.500;7.772;2022-12-24T00:00:08;10.10;99.90
13794;DHT22;31160;49.500;7.772;2022-12-24T00:02:35;10.00;99.90
13794;DHT22;31160;49.500;7.772;2022-12-24T00:05:02;10.10;99.90
13794;DHT22;31160;49.500;7.772;2022-12-24T00:07:29;10.00;99.90
13794;DHT22;31160;49.500;7.772;2022-12-24T00:09:55;9.90;99.90
13794;DHT22;31160;49.500;7.772;2022-12-24T00:12:22;9.80;99.90
13794;DHT22;31160;49.500;7.772;2022-12-24T00:14:50;9.80;99.90
13794;DHT22;31160;49.500;7.772;2022-12-24T00:17:16;9.80;99.90
13794;DHT22;31160;49.500;7.772;2022-12-24T00:19:43;9.70;99.90
13794;DHT22;31160;49.500;7.772;2022-12-24T00:22:10;9.70;99.90
13794;DHT22;31160;49.500;7.772;2022-12-24T00:24:37;9.60;99.90
13794;DHT22;31160;49.500;7.772;2022-12-24T00:27:03;9.70;99.90
13794;DHT22;31160;49.500;7.772;2022-12-24T00:29:32;9.50;99.90
13794;DHT22;31160;49.500;7.772;2022-12-24T00:31:59;9.40;99.90
13794;DHT22;31160;49.500;7.772;2022-12-24T00:34:26;9.40;99.90
13794;DHT22;31160;49.500;7.772;2022-12-24T00:36:52;9.30;99.90
13794;DHT22;31160;49.500;7.772;2022-12-24T00:39:19;9.30;99.90
13794;DHT22;31160;49.500;7.772;2022-12-24T00:41:46;9.20;99.90
13794;DHT22;31160;49.500;7.772;2022-12-24T00:44:13;9.30;99.90
13794;DHT22;31160;49.500;7.772;2022-12-24T00:46:40;9.20;99.90
13794;DHT22;31160;49.500;7.772;2022-12-24T00:49:08;9.20;99.90
13794;DHT22;31160;49.500;7.772;2022-12-24T00:51:36;9.30;99.90
13794;DHT22;31160;49.500;7.772;2022-12-24T00:54:03;9.30;99.90
13794;DHT22;31160;49.500;7.772;2022-12-24T00:56:30;9.30;99.90
13794;DHT22;31160;49.500;7.772;2022-12-24T00:58:57;9.20;99.90
13794;DHT22;31160;49.500;7.772;2022-12-24T01:01:24;9.10;99.90
13794;DHT22;31160;49.500;7.772;2022-12-24T01:03:52;9.10;99.90
13794;DHT22;31160;49.500;7.772;2022-12-24T01:06:39;9.00;99.90
13794;DHT22;31160;49.500;7.772;2022-12-24T01:09:05;9.00;99.90
13794;DHT22;31160;49.500;7.772;2022-12-24T01:11:32;9.00;99.90
13794;DHT22;31160;49.500;7.772;2022-12-24T01:13:59;8.90;99.90
13794;DHT22;31160;49.500;7.772;2022-12-24T01:16:25;8.90;99.90
13794;DHT22;31160;49.500;7.772;2022-12-24T01:18:52;8.90;99.90
13794;DHT22;31160;49.500;7.772;2022-12-24T01:21:19;8.90;99.90
13794;DHT22;31160;49.500;7.772;2022-12-24T01:23:46;8.90;99.90
13794;DHT22;31160;49.500;7.772;2022-12-24T01:26:12;8.90;99.90
13794;DHT22;31160;49.500;7.772;2022-12-24T01:28:40;8.90;99.90
13794;DHT22;31160;49.500;7.772;2022-12-24T01:31:11;8.90;99.90
13794;DHT22;31160;49.500;7.772;2022-12-24T01:33:39;9.00;99.90
13794;DHT22;31160;49.500;7.772;2022-12-24T01:36:06;8.90;99.90
13794;DHT22;31160;49.500;7.772;2022-12-24T01:38:33;8.90;99.90
13794;DHT22;31160;49.500;7.772;2022-12-24T01:41:00;8.80;99.90
13794;DHT22;31160;49.500;7.772;2022-12-24T01:43:45;8.90;99.90
13794;DHT22;31160;49.500;7.772;2022-12-24T01:48:53;8.90;99.90
13794;DHT22;31160;49.500;7.772;2022-12-24T01:51:35;8.80;99.90
13794;DHT22;31160;49.500;7.772;2022-12-24T01:54:10;8.80;99.90
13794;DHT22;31160;49.500;7.772;2022-12-24T01:56:43;8.70;99.90
13794;DHT22;31160;49.500;7.772;2022-12-24T01:59:12;8.80;99.90
13794;DHT22;31160;49.500;7.772;2022-12-24T02:01:40;9.00;99.90
13794;DHT22;31160;49.500;7.772;2022-12-24T02:06:56;8.90;99.90
13794;DHT22;31160;49.500;7.772;2022-12-24T02:09:23;8.80;99.90
13794;DHT22;31160;49.500;7.772;2022-12-24T02:11:51;8.90;99.90
13794;DHT22;31160;49.500;7.772;2022-12-24T02:14:17;9.00;99.90
13794;DHT22;31160;49.500;7.772;2022-12-24T02:17:11;8.90;99.90
13794;DHT22;31160;49.500;7.772;2022-12-24T02:25:56;8.60;99.90
13794;DHT22;31160;49.500;7.772;2022-12-24T02:28:40;8.70;99.90
13794;DHT22;31160;49.500;7.772;2022-12-24T02:31:15;8.60;99.90
13794;DHT22;31160;49.500;7.772;2022-12-24T02:36:41;8.40;99.90
13794;DHT22;31160;49.500;7.772;2022-12-24T02:39:24;8.40;99.90
13794;DHT22;31160;49.500;7.772;2022-12-24T02:41:54;8.50;99.90
13794;DHT22;31160;49.500;7.772;2022-12-24T02:44:42;8.50;99.90
13794;DHT22;31160;49.500;7.772;2022-12-24T02:47:10;8.70;99.90
13794;DHT22;31160;49.500;7.772;2022-12-24T02:49:42;8.80;99.90
13794;DHT22;31160;49.500;7.772;2022-12-24T02:52:33;8.80;99.90
13794;DHT22;31160;49.500;7.772;2022-12-24T03:00:53;9.00;99.90
13794;DHT22;31160;49.500;7.772;2022-12-24T03:03:58;9.10;99.90
13794;DHT22;31160;49.500;7.772;2022-12-24T03:06:50;9.10;99.90
13794;DHT22;31160;49.500;7.772;2022-12-24T03:09:25;9.10;99.90
13794;DHT22;31160;49.500;7.772;2022-12-24T03:11:58;9.20;99.90
13794;DHT22;31160;49.500;7.772;2022-12-24T03:14:28;9.30;99.90
13794;DHT22;31160;49.500;7.772;2022-12-24T03:16:57;9.30;99.90
13794;DHT22;31160;49.500;7.772;2022-12-24T03:19:25;9.30;99.90
13794;DHT22;31160;49.500;7.772;2022-12-24T03:21:55;9.30;99.90
13794;DHT22;31160;49.500;7.772;2022-12-24T03:24:22;9.30;99.90
13794;DHT22;31160;49.500;7.772;2022-12-24T03:26:50;9.40;99.90
13794;DHT22;31160;49.500;7.772;2022-12-24T03:29:17;9.40;99.90
13794;DHT22;31160;49.500;7.772;2022-12-24T03:31:47;9.50;99.90
13794;DHT22;31160;49.500;7.772;2022-12-24T03:34:15;9.60;99.90
13794;DHT22;31160;49.500;7.772;2022-12-24T03:36:42;9.70;99.90
13794;DHT22;31160;49.500;7.772;2022-12-24T03:39:09;9.70;99.90
13794;DHT22;31160;49.500;7.772;2022-12-24T03:41:36;9.70;99.90
13794;DHT22;31160;49.500;7.772;2022-12-24T03:44:03;9.70;99.90
13794;DHT22;31160;49.500;7.772;2022-12-24T03:46:30;9.60;99.90
13794;DHT22;31160;49.500;7.772;2022-12-24T03:48:57;9.50;99.90
13794;DHT22;31160;49.500;7.772;2022-12-24T03:51:24;9.50;99.90
13794;DHT22;31160;49.500;7.772;2022-12-24T03:53:52;9.60;99.90
13794;DHT22;31160;49.500;7.772;2022-12-24T03:56:19;9.70;99.90
13794;DHT22;31160;49.500;7.772;2022-12-24T03:58:46;9.80;99.90
13794;DHT22;31160;49.500;7.772;2022-12-24T04:01:15;9.80;99.90
13794;DHT22;31160;49.500;7.772;2022-12-24T04:03:42;9.80;99.90
13794;DHT22;31160;49.500;7.772;2022-12-24T04:06:14;9.70;99.90
13794;DHT22;31160;49.500;7.772;2022-12-24T04:08:43;9.70;99.90
13794;DHT22;31160;49.500;7.772;2022-12-24T04:11:12;9.80;99.90
13794;DHT22;31160;49.500;7.772;2022-12-24T04:13:39;9.70;99.90
13794;DHT22;31160;49.500;7.772;2022-12-24T04:16:08;9.70;99.90
13794;DHT22;31160;49.500;7.772;2022-12-24T04:18:36;9.80;99.90
13794;DHT22;31160;49.500;7.772;2022-12-24T04:21:04;9.80;99.90
13794;DHT22;31160;49.500;7.772;2022-12-24T04:23:32;9.80;99.90
13794;DHT22;31160;49.500;7.772;2022-12-24T04:26:04;9.80;99.90
13794;DHT22;31160;49.500;7.772;2022-12-24T04:28:31;9.80;99.90
13794;DHT22;31160;49.500;7.772;2022-12-24T04:31:07;9.70;99.90
13794;DHT22;31160;49.500;7.772;2022-12-24T04:33:34;9.70;99.90
13794;DHT22;31160;49.500;7.772;2022-12-24T04:36:02;9.70;99.90
13794;DHT22;31160;49.500;7.772;2022-12-24T04:38:29;9.60;99.90
13794;DHT22;31160;49.500;7.772;2022-12-24T04:41:12;9.60;99.90
13794;DHT22;31160;49.500;7.772;2022-12-24T04:43:48;9.70;99.90
13794;DHT22;31160;49.500;7.772;2022-12-24T04:46:18;9.50;99.90
13794;DHT22;31160;49.500;7.772;2022-12-24T04:48:47;9.60;99.90
13794;DHT22;31160;49.500;7.772;2022-12-24T04:51:15;9.70;99.90
13794;DHT22;31160;49.500;7.772;2022-12-24T04:53:42;9.70;99.90
13794;DHT22;31160;49.500;7.772;2022-12-24T04:56:34;9.70;99.90
13794;DHT22;31160;49.500;7.772;2022-12-24T04:59:01;9.70;99.90
13794;DHT22;31160;49.500;7.772;2022-12-24T05:01:30;9.70;99.90
13794;DHT22;31160;49.500;7.772;2022-12-24T05:03:58;9.70;99.90
13794;DHT22;31160;49.500;7.772;2022-12-24T05:06:28;9.70;99.90
13794;DHT22;31160;49.500;7.772;2022-12-24T05:08:56;9.60;99.90
13794;DHT22;31160;49.500;7.772;2022-12-24T05:11:23;9.60;99.90
13794;DHT22;31160;49.500;7.772;2022-12-24T05:13:50;9.70;99.90
13794;DHT22;31160;49.500;7.772;2022-12-24T05:16:18;9.70;99.90
13794;DHT22;31160;49.500;7.772;2022-12-24T05:18:45;9.70;99.90
13794;DHT22;31160;49.500;7.772;2022-12-24T05:21:15;9.70;99.90
13794;DHT22;31160;49.500;7.772;2022-12-24T05:23:42;9.60;99.90
13794;DHT22;31160;49.500;7.772;2022-12-24T05:28:58;9.70;99.90
13794;DHT22;31160;49.500;7.772;2022-12-24T05:31:27;9.70;99.90
13794;DHT22;31160;49.500;7.772;2022-12-24T05:33:54;9.60;99.90
13794;DHT22;31160;49.500;7.772;2022-12-24T05:36:21;9.70;99.90
13794;DHT22;31160;49.500;7.772;2022-12-24T05:38:49;9.60;99.90
13794;DHT22;31160;49.500;7.772;2022-12-24T05:41:15;9.60;99.90
13794;DHT22;31160;49.500;7.772;2022-12-24T05:43:42;9.60;99.90
13794;DHT22;31160;49.500;7.772;2022-12-24T05:46:11;9.60;99.90
13794;DHT22;31160;49.500;7.772;2022-12-24T05:48:38;9.50;99.90
13794;DHT22;31160;49.500;7.772;2022-12-24T05:51:09;9.50;99.90
13794;DHT22;31160;49.500;7.772;2022-12-24T05:53:36;9.60;99.90
13794;DHT22;31160;49.500;7.772;2022-12-24T05:56:15;9.70;99.90
13794;DHT22;31160;49.500;7.772;2022-12-24T05:58:42;9.60;99.90
13794;DHT22;31160;49.500;7.772;2022-12-24T06:01:10;9.50;99.90
13794;DHT22;31160;49.500;7.772;2022-12-24T06:03:37;9.60;99.90
13794;DHT22;31160;49.500;7.772;2022-12-24T06:06:09;9.60;99.90
13794;DHT22;31160;49.500;7.772;2022-12-24T06:08:37;9.60;99.90
13794;DHT22;31160;49.500;7.772;2022-12-24T06:11:07;9.60;99.90
13794;DHT22;31160;49.500;7.772;2022-12-24T06:13:34;9.40;99.90
13794;DHT22;31160;49.500;7.772;2022-12-24T06:16:03;9.40;99.90
13794;DHT22;31160;49.500;7.772;2022-12-24T06:18:32;9.40;99.90
13794;DHT22;31160;49.500;7.772;2022-12-24T06:20:59;9.40;99.90
13794;DHT22;31160;49.500;7.772;2022-12-24T06:23:28;9.30;99.90
13794;DHT22;31160;49.500;7.772;2022-12-24T06:25:56;9.30;99.90
13794;DHT22;31160;49.500;7.772;2022-12-24T06:28:23;9.30;99.90
13794;DHT22;31160;49.500;7.772;2022-12-24T06:30:50;9.30;99.90
13794;DHT22;31160;49.500;7.772;2022-12-24T06:33:24;9.30;99.90
13794;DHT22;31160;49.500;7.772;2022-12-24T06:35:50;9.40;99.90
13794;DHT22;31160;49.500;7.772;2022-12-24T06:38:17;9.50;99.90
13794;DHT22;31160;49.500;7.772;2022-12-24T06:40:45;9.50;99.90
13794;DHT22;31160;49.500;7.772;2022-12-24T06:43:13;9.40;99.90
13794;DHT22;31160;49.500;7.772;2022-12-24T06:45:44;9.50;99.90
13794;DHT22;31160;49.500;7.772;2022-12-24T06:48:11;9.50;99.90
13794;DHT22;31160;49.500;7.772;2022-12-24T06:50:39;9.60;99.90
13794;DHT22;31160;49.500;7.772;2022-12-24T06:53:06;9.60;99.90
13794;DHT22;31160;49.500;7.772;2022-12-24T06:55:33;9.60;99.90
13794;DHT22;31160;49.500;7.772;2022-12-24T06:57:59;9.70;99.90
13794;DHT22;31160;49.500;7.772;2022-12-24T07:00:26;9.50;99.90
13794;DHT22;31160;49.500;7.772;2022-12-24T07:02:53;9.70;99.90
13794;DHT22;31160;49.500;7.772;2022-12-24T07:05:20;9.60;99.90
13794;DHT22;31160;49.500;7.772;2022-12-24T07:07:46;9.60;99.90
13794;DHT22;31160;49.500;7.772;2022-12-24T07:10:15;9.50;99.90
13794;DHT22;31160;49.500;7.772;2022-12-24T07:12:42;9.50;99.90
13794;DHT22;31160;49.500;7.772;2022-12-24T07:15:11;9.50;99.90
13794;DHT22;31160;49.500;7.772;2022-12-24T07:17:38;9.50;99.90
13794;DHT22;31160;49.500;7.772;2022-12-24T07:20:11;9.50;99.90
13794;DHT22;31160;49.500;7.772;2022-12-24T07:22:39;9.60;99.90
13794;DHT22;31160;49.500;7.772;2022-12-24T07:25:06;9.50;99.90
13794;DHT22;31160;49.500;7.772;2022-12-24T07:27:33;9.50;99.90
13794;DHT22;31160;49.500;7.772;2022-12-24T07:29:59;9.50;99.90
13794;DHT22;31160;49.500;7.772;2022-12-24T07:32:26;9.60;99.90
13794;DHT22;31160;49.500;7.772;2022-12-24T07:34:53;9.60;99.90
13794;DHT22;31160;49.500;7.772;2022-12-24T07:37:19;9.50;99.90
13794;DHT22;31160;49.500;7.772;2022-12-24T07:39:46;9.40;99.90
13794;DHT22;31160;49.500;7.772;2022-12-24T07:42:13;9.30;99.90
13794;DHT22;31160;49.500;7.772;2022-12-24T07:44:39;9.40;99.90
13794;DHT22;31160;49.500;7.772;2022-12-24T07:47:06;9.40;99.90
13794;DHT22;31160;49.500;7.772;2022-12-24T07:49:33;9.40;99.90
13794;DHT22;31160;49.500;7.772;2022-12-24T07:52:02;9.40;99.90
13794;DHT22;31160;49.500;7.772;2022-12-24T07:54:29;9.50;99.90
13794;DHT22;31160;49.500;7.772;2022-12-24T07:56:55;9.60;99.90
13794;DHT22;31160;49.500;7.772;2022-12-24T07:59:22;9.70;99.90
13794;DHT22;31160;49.500;7.772;2022-12-24T08:01:49;9.70;99.90
13794;DHT22;31160;49.500;7.772;2022-12-24T08:04:16;9.70;99.90
13794;DHT22;31160;49.500;7.772;2022-12-24T08:06:42;9.70;99.90
13794;DHT22;31160;49.500;7.772;2022-12-24T08:09:09;9.70;99.90
13794;DHT22;31160;49.500;7.772;2022-12-24T08:11:36;9.80;99.90
13794;DHT22;31160;49.500;7.772;2022-12-24T08:14:02;9.80;99.90
13794;DHT22;31160;49.500;7.772;2022-12-24T08:16:30;9.80;99.90
13794;DHT22;31160;49.500;7.772;2022-12-24T08:18:57;9.90;99.90
13794;DHT22;31160;49.500;7.772;2022-12-24T08:21:24;9.90;99.90
13794;DHT22;31160;49.500;7.772;2022-12-24T08:23:50;10.00;99.90
13794;DHT22;31160;49.500;7.772;2022-12-24T08:26:17;10.00;99.90
13794;DHT22;31160;49.500;7.772;2022-12-24T08:28:44;10.00;99.90
13794;DHT22;31160;49.500;7.772;2022-12-24T08:31:10;10.00;99.90
13794;DHT22;31160;49.500;7.772;2022-12-24T08:33:37;10.00;99.90
13794;DHT22;31160;49.500;7.772;2022-12-24T08:36:04;10.10;99.90
13794;DHT22;31160;49.500;7.772;2022-12-24T08:38:31;10.10;99.90
13794;DHT22;31160;49.500;7.772;2022-12-24T08:40:58;10.20;99.90
13794;DHT22;31160;49.500;7.772;2022-12-24T08:43:25;10.20;99.90
13794;DHT22;31160;49.500;7.772;2022-12-24T08:45:52;10.10;99.90
13794;DHT22;31160;49.500;7.772;2022-12-24T08:48:19;10.20;99.90
13794;DHT22;31160;49.500;7.772;2022-12-24T08:50:46;10.30;99.90
13794;DHT22;31160;49.500;7.772;2022-12-24T08:53:13;10.30;99.90
13794;DHT22;31160;49.500;7.772;2022-12-24T08:55:39;10.40;99.90
13794;DHT22;31160;49.500;7.772;2022-12-24T08:58:06;10.30;99.90
13794;DHT22;31160;49.500;7.772;2022-12-24T09:00:33;10.30;99.90
13794;DHT22;31160;49.500;7.772;2022-12-24T09:03:00;10.40;99.90
13794;DHT22;31160;49.500;7.772;2022-12-24T09:05:27;10.50;99.90
13794;DHT22;31160;49.500;7.772;2022-12-24T09:07:54;10.40;99.90
13794;DHT22;31160;49.500;7.772;2022-12-24T09:10:21;10.60;99.90
13794;DHT22;31160;49.500;7.772;2022-12-24T09:12:48;10.60;99.90
13794;DHT22;31160;49.500;7.772;2022-12-24T09:15:16;10.50;99.90
13794;DHT22;31160;49.500;7.772;2022-12-24T09:17:43;10.60;99.90
13794;DHT22;31160;49.500;7.772;2022-12-24T09:20:10;10.60;99.90
13794;DHT22;31160;49.500;7.772;2022-12-24T09:22:38;10.70;99.90
13794;DHT22;31160;49.500;7.772;2022-12-24T09:25:06;10.90;99.90
13794;DHT22;31160;49.500;7.772;2022-12-24T09:27:33;10.80;99.90
13794;DHT22;31160;49.500;7.772;2022-12-24T09:29:59;10.80;99.90
13794;DHT22;31160;49.500;7.772;2022-12-24T09:32:26;10.80;99.90
13794;DHT22;31160;49.500;7.772;2022-12-24T09:34:53;10.70;99.90
13794;DHT22;31160;49.500;7.772;2022-12-24T09:37:20;10.70;99.90
13794;DHT22;31160;49.500;7.772;2022-12-24T09:39:46;10.70;99.90
13794;DHT22;31160;49.500;7.772;2022-12-24T09:42:50;10.70;99.90
13794;DHT22;31160;49.500;7.772;2022-12-24T09:45:23;10.70;99.90
13794;DHT22;31160;49.500;7.772;2022-12-24T09:48:13;10.80;99.90
13794;DHT22;31160;49.500;7.772;2022-12-24T09:51:03;10.80;99.90
13794;DHT22;31160;49.500;7.772;2022-12-24T09:53:50;10.80;99.90
13794;DHT22;31160;49.500;7.772;2022-12-24T09:56:22;10.80;99.90
13794;DHT22;31160;49.500;7.772;2022-12-24T09:59:02;10.90;99.90
13794;DHT22;31160;49.500;7.772;2022-12-24T10:01:30;11.30;99.90
13794;DHT22;31160;49.500;7.772;2022-12-24T10:04:09;11.40;99.90
13794;DHT22;31160;49.500;7.772;2022-12-24T10:09:54;11.10;99.90
13794;DHT22;31160;49.500;7.772;2022-12-24T10:12:39;11.00;99.90
13794;DHT22;31160;49.500;7.772;2022-12-24T10:25:48;11.30;99.90
13794;DHT22;31160;49.500;7.772;2022-12-24T10:28:21;11.30;99.90
13794;DHT22;31160;49.500;7.772;2022-12-24T10:30:52;11.10;99.90
13794;DHT22;31160;49.500;7.772;2022-12-24T10:33:42;11.10;99.90
13794;DHT22;31160;49.500;7.772;2022-12-24T10:36:16;11.30;99.90
13794;DHT22;31160;49.500;7.772;2022-12-24T10:38:44;11.20;99.90
13794;DHT22;31160;49.500;7.772;2022-12-24T10:41:12;11.40;99.90
13794;DHT22;31160;49.500;7.772;2022-12-24T10:43:40;11.70;99.90
13794;DHT22;31160;49.500;7.772;2022-12-24T10:46:27;12.00;99.90
13794;DHT22;31160;49.500;7.772;2022-12-24T10:49:03;12.30;99.90
13794;DHT22;31160;49.500;7.772;2022-12-24T10:51:39;12.40;99.90
13794;DHT22;31160;49.500;7.772;2022-12-24T10:56:48;12.60;99.90
13794;DHT22;31160;49.500;7.772;2022-12-24T10:59:30;12.60;99.90
13794;DHT22;31160;49.500;7.772;2022-12-24T11:02:01;12.30;99.90
13794;DHT22;31160;49.500;7.772;2022-12-24T11:04:30;12.20;99.90
13794;DHT22;31160;49.500;7.772;2022-12-24T11:07:05;12.20;99.90
13794;DHT22;31160;49.500;7.772;2022-12-24T11:09:38;12.00;99.90
13794;DHT22;31160;49.500;7.772;2022-12-24T11:12:18;12.10;99.90
13794;DHT22;31160;49.500;7.772;2022-12-24T11:14:47;12.00;99.90
13794;DHT22;31160;49.500;7.772;2022-12-24T11:17:21;12.10;99.90
13794;DHT22;31160;49.500;7.772;2022-12-24T11:19:49;12.00;99.90
13794;DHT22;31160;49.500;7.772;2022-12-24T11:25:40;11.50;99.90
13794;DHT22;31160;49.500;7.772;2022-12-24T11:28:23;11.70;99.90
13794;DHT22;31160;49.500;7.772;2022-12-24T11:31:17;11.60;99.90
13794;DHT22;31160;49.500;7.772;2022-12-24T11:33:49;11.90;99.90
13794;DHT22;31160;49.500;7.772;2022-12-24T11:36:20;12.00;99.90
13794;DHT22;31160;49.500;7.772;2022-12-24T11:38:56;12.10;99.90
13794;DHT22;31160;49.500;7.772;2022-12-24T11:41:24;12.30;99.90
13794;DHT22;31160;49.500;7.772;2022-12-24T11:43:59;12.20;99.90
13794;DHT22;31160;49.500;7.772;2022-12-24T11:46:42;12.20;99.90
13794;DHT22;31160;49.500;7.772;2022-12-24T11:49:24;12.30;99.90
13794;DHT22;31160;49.500;7.772;2022-12-24T11:55:13;12.00;99.90
13794;DHT22;31160;49.500;7.772;2022-12-24T11:58:02;12.30;99.90
13794;DHT22;31160;49.500;7.772;2022-12-24T12:00:30;12.10;99.90
13794;DHT22;31160;49.500;7.772;2022-12-24T12:03:00;11.90;99.90
13794;DHT22;31160;49.500;7.772;2022-12-24T12:05:31;12.10;99.90
13794;DHT22;31160;49.500;7.772;2022-12-24T12:08:09;12.00;99.90
13794;DHT22;31160;49.500;7.772;2022-12-24T12:10:41;12.10;99.90
13794;DHT22;31160;49.500;7.772;2022-12-24T12:13:13;12.10;99.90
13794;DHT22;31160;49.500;7.772;2022-12-24T12:15:50;12.20;99.90
13794;DHT22;31160;49.500;7.772;2022-12-24T12:18:22;12.40;99.90
13794;DHT22;31160;49.500;7.772;2022-12-24T12:21:02;12.40;99.90
13794;DHT22;31160;49.500;7.772;2022-12-24T12:23:43;12.40;99.90
13794;DHT22;31160;49.500;7.772;2022-12-24T12:31:43;12.30;99.90
13794;DHT22;31160;49.500;7.772;2022-12-24T12:37:27;12.20;99.90
13794;DHT22;31160;49.500;7.772;2022-12-24T12:39:56;12.20;99.90
13794;DHT22;31160;49.500;7.772;2022-12-24T12:47:58;11.90;99.90
13794;DHT22;31160;49.500;7.772;2022-12-24T12:50:52;11.80;99.90
13794;DHT22;31160;49.500;7.772;2022-12-24T12:53:51;11.80;99.90
13794;DHT22;31160;49.500;7.772;2022-12-24T12:56:34;11.90;99.90
13794;DHT22;31160;49.500;7.772;2022-12-24T13:02:11;11.50;99.90
13794;DHT22;31160;49.500;7.772;2022-12-24T13:05:04;11.60;99.90
13794;DHT22;31160;49.500;7.772;2022-12-24T13:08:08;11.50;99.90
13794;DHT22;31160;49.500;7.772;2022-12-24T13:13:58;11.80;99.90
13794;DHT22;31160;49.500;7.772;2022-12-24T13:16:37;11.50;99.90
13794;DHT22;31160;49.500;7.772;2022-12-24T13:21:45;11.60;99.90
13794;DHT22;31160;49.500;7.772;2022-12-24T13:27:14;11.80;99.90
13794;DHT22;31160;49.500;7.772;2022-12-24T13:34:51;11.70;99.90
13794;DHT22;31160;49.500;7.772;2022-12-24T13:37:34;11.50;99.90
13794;DHT22;31160;49.500;7.772;2022-12-24T13:50:49;11.20;99.90
13794;DHT22;31160;49.500;7.772;2022-12-24T13:53:40;11.00;99.90
13794;DHT22;31160;49.500;7.772;2022-12-24T13:56:25;11.20;99.90
13794;DHT22;31160;49.500;7.772;2022-12-24T14:02:03;11.20;99.90
13794;DHT22;31160;49.500;7.772;2022-12-24T14:04:34;11.20;99.90
13794;DHT22;31160;49.500;7.772;2022-12-24T14:07:02;11.30;99.90
13794;DHT22;31160;49.500;7.772;2022-12-24T14:09:31;11.30;99.90
13794;DHT22;31160;49.500;7.772;2022-12-24T14:14:30;11.10;99.90
13794;DHT22;31160;49.500;7.772;2022-12-24T14:17:02;11.20;99.90
13794;DHT22;31160;49.500;7.772;2022-12-24T14:19:40;11.30;99.90
13794;DHT22;31160;49.500;7.772;2022-12-24T14:24:41;11.20;99.90
13794;DHT22;31160;49.500;7.772;2022-12-24T14:27:23;11.40;99.90
13794;DHT22;31160;49.500;7.772;2022-12-24T14:30:20;11.40;99.90
13794;DHT22;31160;49.500;7.772;2022-12-24T14:32:48;11.40;99.90
13794;DHT22;31160;49.500;7.772;2022-12-24T14:35:16;11.40;99.90
13794;DHT22;31160;49.500;7.772;2022-12-24T14:38:02;11.30;99.90
13794;DHT22;31160;49.500;7.772;2022-12-24T14:40:32;11.30;99.90
13794;DHT22;31160;49.500;7.772;2022-12-24T14:43:21;11.40;99.90
13794;DHT22;31160;49.500;7.772;2022-12-24T14:54:14;11.00;99.90
13794;DHT22;31160;49.500;7.772;2022-12-24T14:56:42;11.00;99.90
13794;DHT22;31160;49.500;7.772;2022-12-24T14:59:16;11.00;99.90
13794;DHT22;31160;49.500;7.772;2022-12-24T15:01:44;11.10;99.90
13794;DHT22;31160;49.500;7.772;2022-12-24T15:06:50;11.20;99.90
13794;DHT22;31160;49.500;7.772;2022-12-24T15:09:30;11.20;99.90
13794;DHT22;31160;49.500;7.772;2022-12-24T15:12:01;11.20;99.90
13794;DHT22;31160;49.500;7.772;2022-12-24T15:14:32;11.30;99.90
13794;DHT22;31160;49.500;7.772;2022-12-24T15:17:02;11.30;99.90
13794;DHT22;31160;49.500;7.772;2022-12-24T15:19:33;11.30;99.90
13794;DHT22;31160;49.500;7.772;2022-12-24T15:22:02;11.30;99.90
13794;DHT22;31160;49.500;7.772;2022-12-24T15:24:35;11.20;99.90
13794;DHT22;31160;49.500;7.772;2022-12-24T15:27:31;11.10;99.90
13794;DHT22;31160;49.500;7.772;2022-12-24T15:29:58;11.10;99.90
13794;DHT22;31160;49.500;7.772;2022-12-24T15:32:33;11.10;99.90
13794;DHT22;31160;49.500;7.772;2022-12-24T15:34:59;11.10;99.90
13794;DHT22;31160;49.500;7.772;2022-12-24T15:37:28;11.10;99.90
13794;DHT22;31160;49.500;7.772;2022-12-24T15:40:21;11.10;99.90
13794;DHT22;31160;49.500;7.772;2022-12-24T15:42:48;11.10;99.90
13794;DHT22;31160;49.500;7.772;2022-12-24T15:45:27;11.10;99.90
13794;DHT22;31160;49.500;7.772;2022-12-24T15:47:58;11.00;99.90
13794;DHT22;31160;49.500;7.772;2022-12-24T15:50:29;11.00;99.90
13794;DHT22;31160;49.500;7.772;2022-12-24T15:53:07;11.00;99.90
13794;DHT22;31160;49.500;7.772;2022-12-24T15:56:29;11.10;99.90
13794;DHT22;31160;49.500;7.772;2022-12-24T16:01:44;11.10;99.90
13794;DHT22;31160;49.500;7.772;2022-12-24T16:04:29;11.10;99.90
13794;DHT22;31160;49.500;7.772;2022-12-24T16:07:02;11.10;99.90
13794;DHT22;31160;49.500;7.772;2022-12-24T16:12:02;11.10;99.90
13794;DHT22;31160;49.500;7.772;2022-12-24T16:14:30;11.00;99.90
13794;DHT22;31160;49.500;7.772;2022-12-24T16:16:57;11.00;99.90
13794;DHT22;31160;49.500;7.772;2022-12-24T16:19:26;11.10;99.90
13794;DHT22;31160;49.500;7.772;2022-12-24T16:22:01;11.10;99.90
13794;DHT22;31160;49.500;7.772;2022-12-24T16:24:48;11.10;99.90
13794;DHT22;31160;49.500;7.772;2022-12-24T16:27:17;11.00;99.90
13794;DHT22;31160;49.500;7.772;2022-12-24T16:29:44;10.90;99.90
13794;DHT22;31160;49.500;7.772;2022-12-24T16:32:33;10.90;99.90
13794;DHT22;31160;49.500;7.772;2022-12-24T16:35:01;10.90;99.90
13794;DHT22;31160;49.500;7.772;2022-12-24T16:37:29;10.80;99.90
13794;DHT22;31160;49.500;7.772;2022-12-24T16:39:55;10.80;99.90
13794;DHT22;31160;49.500;7.772;2022-12-24T16:42:22;10.70;99.90
13794;DHT22;31160;49.500;7.772;2022-12-24T16:45:08;10.70;99.90
13794;DHT22;31160;49.500;7.772;2022-12-24T16:47:36;10.70;99.90
13794;DHT22;31160;49.500;7.772;2022-12-24T16:50:14;10.70;99.90
13794;DHT22;31160;49.500;7.772;2022-12-24T16:52:41;10.70;99.90
13794;DHT22;31160;49.500;7.772;2022-12-24T16:55:12;10.70;99.90
13794;DHT22;31160;49.500;7.772;2022-12-24T16:57:39;10.70;99.90
13794;DHT22;31160;49.500;7.772;2022-12-24T17:00:17;10.60;99.90
13794;DHT22;31160;49.500;7.772;2022-12-24T17:02:46;10.60;99.90
13794;DHT22;31160;49.500;7.772;2022-12-24T17:05:14;10.60;99.90
13794;DHT22;31160;49.500;7.772;2022-12-24T17:07:41;10.60;99.90
13794;DHT22;31160;49.500;7.772;2022-12-24T17:10:11;10.60;99.90
13794;DHT22;31160;49.500;7.772;2022-12-24T17:12:39;10.50;99.90
13794;DHT22;31160;49.500;7.772;2022-12-24T17:15:06;10.50;99.90
13794;DHT22;31160;49.500;7.772;2022-12-24T17:17:33;10.60;99.90
13794;DHT22;31160;49.500;7.772;2022-12-24T17:20:00;10.50;99.90
13794;DHT22;31160;49.500;7.772;2022-12-24T17:22:27;10.50;99.90
13794;DHT22;31160;49.500;7.772;2022-12-24T17:24:54;10.50;99.90
13794;DHT22;31160;49.500;7.772;2022-12-24T17:27:22;10.50;99.90
13794;DHT22;31160;49.500;7.772;2022-12-24T17:29:49;10.50;99.90
13794;DHT22;31160;49.500;7.772;2022-12-24T17:32:16;10.50;99.90
13794;DHT22;31160;49.500;7.772;2022-12-24T17:34:43;10.60;99.90
13794;DHT22;31160;49.500;7.772;2022-12-24T17:37:10;10.60;99.90
13794;DHT22;31160;49.500;7.772;2022-12-24T17:39:36;10.60;99.90
13794;DHT22;31160;49.500;7.772;2022-12-24T17:42:03;10.60;99.90
13794;DHT22;31160;49.500;7.772;2022-12-24T17:44:30;10.60;99.90
13794;DHT22;31160;49.500;7.772;2022-12-24T17:46:57;10.60;99.90
13794;DHT22;31160;49.500;7.772;2022-12-24T17:49:24;10.60;99.90
13794;DHT22;31160;49.500;7.772;2022-12-24T17:51:51;10.60;99.90
13794;DHT22;31160;49.500;7.772;2022-12-24T17:54:17;10.60;99.90